McCook, NE

3:49 PM CDT on May 24, 2015 (GMT -0500)
McCook Municipal | | Change Station
CLOSE
Current Station
Airport
Location: McCook,
Elevation: 2579 ft
Nearby Weather Stations

Elev 2579 ft 40.20 °N, 100.59 °W | Updated 56 minutes ago

Overcast
Overcast
68 °F
Feels Like 68 °F
N
9
Wind Variable Wind from East

Today
High -- | Low -- °F
--% Chance of Precip.
Yesterday
High -- | Low -- °F
Precip. -- in
6:19 AM 8:59 PM
Waxing Crescent, 42% visible
Pressure 29.77 in
Visibility 10.0 miles
Clouds Few 2900 ft
Mostly Cloudy 4600 ft
Overcast 6000 ft
Dew Point 56 °F
Humidity 65%
Rainfall 0.00 in
Snow Depth Not available.
UV 3 out of 12
Pollen 6.00 out of 12
Air Quality Not available.
Flu Activity No Activity
METAR KMCK 241953Z AUTO 09008KT 10SM FEW029 BKN046 OVC060 20/13 A2981 RMK AO2 SLP080 T02000133

More Conditions Fewer Conditions

Pressure 29.77 in
Visibility 10.0 miles
Clouds Few 2900 ft
Mostly Cloudy 4600 ft
Overcast 6000 ft
Dew Point 56 °F
Humidity 65%
Rainfall 0.00 in
Snow Depth Not available.
UV 3 out of 12
Pollen 6.00 out of 12
Air Quality Not available.
Flu Activity No Activity
METAR KMCK 241953Z AUTO 09008KT 10SM FEW029 BKN046 OVC060 20/13 A2981 RMK AO2 SLP080 T02000133

More Conditions Fewer Conditions

10-Day Weather Forecast

Almanac

Astronomy

May. 24, 2015 Rise Set
Actual Time
Civil Twilight
Nautical Twilight
Astronomical Twilight
Moon
Length of Visible Light
Length of Day
Tomorrow will be .
, % of the Moon is Illuminated

Today's Extremes

State Highs State Lows

Community

WunderPhotos

Upload Photos

1,823,862 photos uploaded!

WunderBlogs® & News

Nearby

Air Quality

  Air Quality AQ Index Pollutant
Not available.

Snow Depth

Station Depth Elevation

Earthquake Activity

City Distance Mag. Time & Date
Minimum magnitude displayed is 2.5.

Coastal Water Temperatures

Place Temperature

Stations

Nearby Weather Stations

Station Location Temp. Windchill Dew Point Humidity Wind Precip. Elev Updated Type